Time;durP1;ratioP1;P1;durP2;ratioP2;P2;SDS_P1;SDS_P2;PMS_P1;PMS_P2;Temp;Humidity;BMP_temperature;BMP_pressure;BME280_temperature;BME280_humidity;BME280_pressure;Samples;Min_cycle;Max_cycle;Signal;HPM_P1;HPM_P2
2023/01/31 00:00:57;;;;;;;5.70;3.90;;;;;;;;;;5093252;28;20481;-74
2023/01/31 00:03:24;;;;;;;13.80;4.40;;;;;;;;;;5093274;28;20818;-73
2023/01/31 00:05:52;;;;;;;8.80;3.60;;;;;;;;;;5093283;28;20431;-73
2023/01/31 00:08:19;;;;;;;8.97;4.03;;;;;;;;;;5093201;28;20898;-73
2023/01/31 00:10:46;;;;;;;6.20;4.27;;;;;;;;;;5093260;28;20816;-74
2023/01/31 00:13:13;;;;;;;5.93;4.93;;;;;;;;;;5093194;28;20473;-74
2023/01/31 00:15:40;;;;;;;11.00;4.90;;;;;;;;;;5093081;28;20493;-73
2023/01/31 00:18:08;;;;;;;8.30;4.00;;;;;;;;;;5093073;28;20451;-73
2023/01/31 00:20:35;;;;;;;8.47;4.10;;;;;;;;;;5093020;28;20478;-73
2023/01/31 00:23:04;;;;;;;7.20;3.97;;;;;;;;;;5092746;28;20459;-74
2023/01/31 00:25:31;;;;;;;8.03;4.27;;;;;;;;;;5093001;28;20471;-74
2023/01/31 00:27:59;;;;;;;5.47;3.33;;;;;;;;;;5092769;28;20545;-73
2023/01/31 00:30:26;;;;;;;7.10;3.60;;;;;;;;;;5092649;28;20466;-73
2023/01/31 00:32:53;;;;;;;3.80;3.13;;;;;;;;;;5092679;28;20459;-74
2023/01/31 00:35:20;;;;;;;6.43;4.03;;;;;;;;;;5092938;28;20850;-73
2023/01/31 00:37:47;;;;;;;6.20;4.50;;;;;;;;;;5093021;28;20477;-74
2023/01/31 00:40:16;;;;;;;6.03;4.47;;;;;;;;;;5092943;28;20481;-73
2023/01/31 00:42:43;;;;;;;7.90;4.40;;;;;;;;;;5092947;28;20460;-73
2023/01/31 00:45:11;;;;;;;5.83;3.70;;;;;;;;;;5092613;28;20458;-73
2023/01/31 00:47:38;;;;;;;6.30;4.53;;;;;;;;;;5092564;28;20450;-73
2023/01/31 00:50:05;;;;;;;6.93;3.87;;;;;;;;;;5095222;28;20478;-73
2023/01/31 00:52:33;;;;;;;6.93;3.77;;;;;;;;;;5096134;28;20449;-74
2023/01/31 00:55:00;;;;;;;5.90;3.60;;;;;;;;;;5095985;28;20478;-74
2023/01/31 00:57:28;;;;;;;10.03;4.40;;;;;;;;;;5096310;28;20935;-74
2023/01/31 00:59:55;;;;;;;6.37;3.83;;;;;;;;;;5096125;28;20474;-74
2023/01/31 01:02:22;;;;;;;8.40;4.47;;;;;;;;;;5096269;28;20461;-73
2023/01/31 01:04:50;;;;;;;7.60;4.03;;;;;;;;;;5096013;28;20431;-73
2023/01/31 01:07:17;;;;;;;7.90;3.73;;;;;;;;;;5096108;28;20459;-73
2023/01/31 01:09:44;;;;;;;4.63;2.90;;;;;;;;;;5095751;28;20475;-73
2023/01/31 01:12:11;;;;;;;6.03;3.60;;;;;;;;;;5096108;28;20447;-74
2023/01/31 01:14:39;;;;;;;5.90;3.90;;;;;;;;;;5095902;28;20482;-73
2023/01/31 01:17:06;;;;;;;7.57;3.17;;;;;;;;;;5096053;28;20447;-74
2023/01/31 01:19:33;;;;;;;9.70;3.63;;;;;;;;;;5095546;28;20478;-74
2023/01/31 01:22:01;;;;;;;8.50;4.10;;;;;;;;;;5095557;28;20451;-73
2023/01/31 01:24:28;;;;;;;18.83;8.33;;;;;;;;;;5095637;28;20537;-73
2023/01/31 01:26:55;;;;;;;7.27;4.00;;;;;;;;;;5095367;28;20813;-74
2023/01/31 01:29:22;;;;;;;4.67;3.53;;;;;;;;;;5095655;28;20490;-73
2023/01/31 01:31:50;;;;;;;6.03;4.13;;;;;;;;;;5095400;28;20454;-73
2023/01/31 01:34:18;;;;;;;5.93;4.03;;;;;;;;;;5095519;28;20474;-74
2023/01/31 01:36:45;;;;;;;5.97;3.03;;;;;;;;;;5095494;28;20869;-74
2023/01/31 01:39:12;;;;;;;5.20;3.80;;;;;;;;;;5095489;28;20467;-73
2023/01/31 01:41:40;;;;;;;12.27;4.40;;;;;;;;;;5095452;28;20454;-74
2023/01/31 01:44:22;;;;;;;11.07;3.50;;;;;;;;;;5095521;28;20943;-74
2023/01/31 01:46:50;;;;;;;5.33;3.77;;;;;;;;;;5094913;28;20457;-73
2023/01/31 01:49:21;;;;;;;10.63;3.53;;;;;;;;;;5095234;28;20471;-73
2023/01/31 01:51:48;;;;;;;5.50;3.33;;;;;;;;;;5095452;28;20434;-74
2023/01/31 01:54:17;;;;;;;8.37;3.30;;;;;;;;;;5095536;28;20459;-74
2023/01/31 01:56:46;;;;;;;11.73;3.37;;;;;;;;;;5095113;28;20478;-74
2023/01/31 01:59:15;;;;;;;5.83;3.47;;;;;;;;;;5094748;28;20479;-73
2023/01/31 02:01:42;;;;;;;5.80;4.47;;;;;;;;;;5095014;28;20474;-73
2023/01/31 02:04:14;;;;;;;9.73;3.70;;;;;;;;;;5094754;28;20454;-73
2023/01/31 02:06:41;;;;;;;9.70;2.50;;;;;;;;;;5094987;28;20439;-74
2023/01/31 02:09:10;;;;;;;5.07;3.57;;;;;;;;;;5094665;28;20463;-73
2023/01/31 02:11:37;;;;;;;8.70;3.30;;;;;;;;;;5094872;28;20451;-73
2023/01/31 02:14:06;;;;;;;8.93;4.07;;;;;;;;;;5094844;28;20938;-74
2023/01/31 02:16:33;;;;;;;11.67;3.90;;;;;;;;;;5094737;28;20486;-73
2023/01/31 02:19:00;;;;;;;8.20;3.00;;;;;;;;;;5094347;28;20474;-74
2023/01/31 02:21:43;;;;;;;10.57;3.87;;;;;;;;;;5094473;28;20462;-73
2023/01/31 02:24:29;;;;;;;11.80;3.67;;;;;;;;;;5094552;28;20470;-73
2023/01/31 02:27:05;;;;;;;9.50;4.00;;;;;;;;;;5094690;28;20427;-74
2023/01/31 02:29:58;;;;;;;5.70;3.00;;;;;;;;;;5094517;28;20475;-74
2023/01/31 02:32:35;;;;;;;10.10;2.80;;;;;;;;;;5058262;28;20466;-74
2023/01/31 02:35:05;;;;;;;3.10;2.50;;;;;;;;;;5094428;28;20856;-74
2023/01/31 02:37:35;;;;;;;9.70;4.20;;;;;;;;;;5094430;28;20431;-74
2023/01/31 02:40:06;;;;;;;6.87;2.83;;;;;;;;;;5094255;28;20475;-74
2023/01/31 02:42:39;;;;;;;9.27;4.07;;;;;;;;;;5094339;28;20442;-74
2023/01/31 02:45:08;;;;;;;5.40;3.50;;;;;;;;;;5094047;28;20431;-74
2023/01/31 02:47:43;;;;;;;7.20;3.50;;;;;;;;;;5094233;28;20939;-74
2023/01/31 02:50:14;;;;;;;6.03;4.00;;;;;;;;;;5094112;28;21005;-74
2023/01/31 02:52:43;;;;;;;8.73;3.77;;;;;;;;;;5094179;28;20439;-74
2023/01/31 02:57:59;;;;;;;6.30;2.97;;;;;;;;;;5093891;28;20929;-74
2023/01/31 03:00:27;;;;;;;5.43;3.57;;;;;;;;;;5093899;28;20833;-74
2023/01/31 03:02:55;;;;;;;5.27;3.30;;;;;;;;;;5093933;28;20822;-73
2023/01/31 03:05:22;;;;;;;5.37;2.90;;;;;;;;;;5093591;28;20451;-73
2023/01/31 03:07:52;;;;;;;9.80;3.57;;;;;;;;;;5093930;28;20454;-74
2023/01/31 03:10:29;;;;;;;5.00;2.57;;;;;;;;;;5093803;28;20821;-74
2023/01/31 03:13:01;;;;;;;5.73;3.53;;;;;;;;;;5093046;28;20438;-73
2023/01/31 03:18:20;;;;;;;5.83;2.80;;;;;;;;;;5093332;28;20434;-74
2023/01/31 03:20:50;;;;;;;9.17;3.00;;;;;;;;;;5093743;28;20777;-73
2023/01/31 03:23:19;;;;;;;8.20;3.50;;;;;;;;;;5093712;28;20447;-73
2023/01/31 03:25:47;;;;;;;5.93;2.83;;;;;;;;;;5093215;28;20462;-73
2023/01/31 03:28:16;;;;;;;7.20;3.20;;;;;;;;;;5093649;28;20454;-74
2023/01/31 03:30:47;;;;;;;14.43;4.07;;;;;;;;;;5093578;28;20903;-73
2023/01/31 03:33:16;;;;;;;14.17;3.20;;;;;;;;;;5093265;28;20435;-73
2023/01/31 03:35:47;;;;;;;7.00;4.17;;;;;;;;;;5093380;28;20986;-74
2023/01/31 03:38:17;;;;;;;5.90;2.87;;;;;;;;;;5093537;28;20439;-73
2023/01/31 03:40:48;;;;;;;4.00;2.60;;;;;;;;;;5093535;28;20431;-73
2023/01/31 03:43:20;;;;;;;6.70;3.70;;;;;;;;;;5093205;28;20444;-73
2023/01/31 03:45:50;;;;;;;11.93;3.90;;;;;;;;;;5093174;28;20427;-74
2023/01/31 03:48:21;;;;;;;5.87;3.23;;;;;;;;;;5093457;28;20454;-73
2023/01/31 03:50:51;;;;;;;5.13;3.40;;;;;;;;;;5093099;28;20447;-73
2023/01/31 03:53:20;;;;;;;3.63;2.17;;;;;;;;;;5093434;28;20442;-73
2023/01/31 03:55:50;;;;;;;7.20;3.07;;;;;;;;;;5093038;28;20486;-73
2023/01/31 03:58:19;;;;;;;5.80;3.27;;;;;;;;;;5093266;28;20981;-74
2023/01/31 04:00:48;;;;;;;6.30;2.90;;;;;;;;;;5093065;28;20458;-74
2023/01/31 04:03:18;;;;;;;4.90;3.60;;;;;;;;;;5093304;28;20450;-74
2023/01/31 04:05:45;;;;;;;6.60;3.80;;;;;;;;;;5093354;28;20438;-74
2023/01/31 04:08:15;;;;;;;7.27;3.87;;;;;;;;;;5093773;28;20455;-74
2023/01/31 04:10:42;;;;;;;3.27;2.37;;;;;;;;;;5093231;28;20474;-74
2023/01/31 04:13:09;;;;;;;7.83;2.87;;;;;;;;;;5093290;28;20451;-74
2023/01/31 04:15:36;;;;;;;5.30;3.57;;;;;;;;;;5093128;28;20482;-73
2023/01/31 04:18:03;;;;;;;6.87;3.33;;;;;;;;;;5093156;28;20459;-73
2023/01/31 04:20:30;;;;;;;7.07;2.83;;;;;;;;;;5092781;28;20470;-73
2023/01/31 04:22:58;;;;;;;7.13;3.40;;;;;;;;;;5093205;28;20506;-73
2023/01/31 04:25:27;;;;;;;5.63;3.40;;;;;;;;;;5095961;28;20467;-73
2023/01/31 04:27:54;;;;;;;3.10;2.60;;;;;;;;;;5096961;28;20962;-73
2023/01/31 04:30:21;;;;;;;5.57;3.33;;;;;;;;;;5096834;28;20835;-74
2023/01/31 04:32:48;;;;;;;6.00;3.90;;;;;;;;;;5096786;28;20459;-73
2023/01/31 04:35:15;;;;;;;8.73;4.57;;;;;;;;;;5096702;28;20450;-73
2023/01/31 04:37:42;;;;;;;9.90;4.10;;;;;;;;;;5096746;28;20817;-74
2023/01/31 04:40:12;;;;;;;6.10;4.33;;;;;;;;;;5096657;28;20470;-73
2023/01/31 04:42:41;;;;;;;7.87;4.60;;;;;;;;;;5096743;28;20957;-74
2023/01/31 04:45:09;;;;;;;5.83;3.50;;;;;;;;;;5096636;28;20455;-74
2023/01/31 04:47:36;;;;;;;9.30;5.40;;;;;;;;;;5096388;28;20442;-74
2023/01/31 04:50:03;;;;;;;9.00;3.80;;;;;;;;;;5096392;28;20467;-74
2023/01/31 04:52:30;;;;;;;4.90;3.37;;;;;;;;;;5096524;28;20447;-74
2023/01/31 04:54:57;;;;;;;7.53;4.00;;;;;;;;;;5096466;28;20458;-74
2023/01/31 04:57:24;;;;;;;4.47;2.63;;;;;;;;;;5096260;28;20978;-73
2023/01/31 04:59:53;;;;;;;4.43;3.13;;;;;;;;;;5096241;28;20504;-73
2023/01/31 05:02:22;;;;;;;6.33;3.80;;;;;;;;;;5096239;28;20450;-74
2023/01/31 05:04:49;;;;;;;4.27;3.00;;;;;;;;;;5096278;28;20899;-74
2023/01/31 05:07:16;;;;;;;7.60;3.70;;;;;;;;;;5096181;28;20451;-74
2023/01/31 05:09:43;;;;;;;6.57;3.70;;;;;;;;;;5096095;28;20471;-73
2023/01/31 05:12:10;;;;;;;4.10;3.50;;;;;;;;;;5096020;28;20861;-74
2023/01/31 05:14:37;;;;;;;9.23;3.90;;;;;;;;;;5096045;28;20451;-73
2023/01/31 05:17:06;;;;;;;5.90;3.40;;;;;;;;;;5095999;28;20501;-73
2023/01/31 05:19:33;;;;;;;7.87;3.20;;;;;;;;;;5095911;28;20470;-74
2023/01/31 05:22:00;;;;;;;7.53;3.30;;;;;;;;;;5095955;28;20431;-74
2023/01/31 05:24:29;;;;;;;6.40;3.27;;;;;;;;;;5095602;28;20463;-74
2023/01/31 05:26:57;;;;;;;12.33;4.40;;;;;;;;;;5095442;28;20443;-74
2023/01/31 05:29:25;;;;;;;4.13;3.70;;;;;;;;;;5095533;28;20471;-74
2023/01/31 05:31:52;;;;;;;7.20;3.17;;;;;;;;;;5096059;28;20490;-74
2023/01/31 05:34:21;;;;;;;11.03;4.40;;;;;;;;;;5095411;28;20458;-74
2023/01/31 05:36:49;;;;;;;6.53;3.27;;;;;;;;;;5095461;28;20501;-74
2023/01/31 05:39:16;;;;;;;13.03;3.77;;;;;;;;;;5095538;28;20471;-74
2023/01/31 05:41:43;;;;;;;10.50;3.87;;;;;;;;;;5095473;28;20462;-73
2023/01/31 05:44:10;;;;;;;5.80;2.20;;;;;;;;;;5095193;28;20450;-74
2023/01/31 05:46:38;;;;;;;5.00;2.60;;;;;;;;;;5095475;28;20447;-74
2023/01/31 05:49:05;;;;;;;11.00;3.10;;;;;;;;;;5095047;28;20470;-74
2023/01/31 05:51:33;;;;;;;9.77;3.93;;;;;;;;;;5095299;28;20843;-74
2023/01/31 05:54:00;;;;;;;6.10;3.30;;;;;;;;;;5095318;28;20451;-73
2023/01/31 05:56:28;;;;;;;8.67;4.80;;;;;;;;;;5094880;28;20474;-74
2023/01/31 05:58:55;;;;;;;7.00;3.17;;;;;;;;;;5095208;28;20867;-73
2023/01/31 06:01:23;;;;;;;5.70;3.70;;;;;;;;;;5095306;28;20811;-72
2023/01/31 06:03:50;;;;;;;8.67;3.80;;;;;;;;;;5094395;28;20449;-72
2023/01/31 06:06:17;;;;;;;6.00;3.47;;;;;;;;;;5095036;28;20447;-72
2023/01/31 06:08:46;;;;;;;10.20;3.03;;;;;;;;;;5094665;28;21009;-73
2023/01/31 06:11:13;;;;;;;6.67;3.47;;;;;;;;;;5094953;28;20455;-72
2023/01/31 06:13:42;;;;;;;18.33;3.60;;;;;;;;;;5094537;28;20455;-72
2023/01/31 06:16:09;;;;;;;13.17;4.00;;;;;;;;;;5094740;28;20505;-72
2023/01/31 06:18:36;;;;;;;10.60;3.47;;;;;;;;;;5094095;28;20458;-72
2023/01/31 06:21:03;;;;;;;9.73;4.23;;;;;;;;;;5094771;28;20476;-72
2023/01/31 06:23:33;;;;;;;7.33;4.57;;;;;;;;;;5094626;28;20801;-72
2023/01/31 06:26:01;;;;;;;6.33;4.20;;;;;;;;;;5094586;28;20805;-73
2023/01/31 06:28:28;;;;;;;8.60;3.13;;;;;;;;;;5094544;28;20455;-72
2023/01/31 06:30:55;;;;;;;9.60;3.43;;;;;;;;;;5094188;28;20450;-72
2023/01/31 06:33:23;;;;;;;9.27;3.30;;;;;;;;;;5094464;28;20442;-72
2023/01/31 06:35:50;;;;;;;6.60;4.03;;;;;;;;;;5094458;28;20824;-72
2023/01/31 06:38:17;;;;;;;10.63;3.33;;;;;;;;;;5094386;28;20447;-72
2023/01/31 06:40:44;;;;;;;13.33;4.73;;;;;;;;;;5094087;28;20442;-72
2023/01/31 06:43:12;;;;;;;7.70;4.40;;;;;;;;;;5094261;28;20438;-72
2023/01/31 06:45:39;;;;;;;6.00;3.57;;;;;;;;;;5094139;28;20442;-72
2023/01/31 06:48:06;;;;;;;6.20;3.53;;;;;;;;;;5093476;28;20443;-71
2023/01/31 06:50:34;;;;;;;4.60;2.83;;;;;;;;;;5093824;28;20474;-72
2023/01/31 06:53:01;;;;;;;4.53;3.37;;;;;;;;;;5093881;28;20455;-72
2023/01/31 06:55:28;;;;;;;8.20;3.73;;;;;;;;;;5094128;28;20903;-72
2023/01/31 06:57:55;;;;;;;8.73;3.70;;;;;;;;;;5093908;28;20493;-73
2023/01/31 07:00:24;;;;;;;10.23;3.10;;;;;;;;;;5093952;28;20982;-72
2023/01/31 07:02:52;;;;;;;7.33;3.50;;;;;;;;;;5093862;28;20951;-73
2023/01/31 07:05:20;;;;;;;9.30;3.40;;;;;;;;;;5093638;28;20542;-72
2023/01/31 07:07:48;;;;;;;10.73;4.80;;;;;;;;;;5093862;28;20446;-73
2023/01/31 07:10:16;;;;;;;6.03;3.47;;;;;;;;;;5093828;28;20901;-72
2023/01/31 07:12:43;;;;;;;10.73;4.70;;;;;;;;;;5093566;28;20462;-73
2023/01/31 07:15:11;;;;;;;9.23;3.83;;;;;;;;;;5092399;28;20454;-73
2023/01/31 07:17:39;;;;;;;13.27;3.83;;;;;;;;;;5078003;28;20484;-73
2023/01/31 07:20:07;;;;;;;5.00;2.63;;;;;;;;;;5072373;28;20472;-72
2023/01/31 07:22:34;;;;;;;5.17;3.50;;;;;;;;;;5071976;28;20455;-72
2023/01/31 07:25:01;;;;;;;10.90;3.90;;;;;;;;;;5071014;28;21010;-74
2023/01/31 07:27:28;;;;;;;5.60;3.90;;;;;;;;;;5072137;28;20448;-73
2023/01/31 07:29:55;;;;;;;4.93;3.80;;;;;;;;;;5072536;28;20471;-72
2023/01/31 07:32:23;;;;;;;12.17;4.40;;;;;;;;;;5071434;28;20474;-73
2023/01/31 07:34:51;;;;;;;15.47;4.03;;;;;;;;;;5072365;28;20463;-73
2023/01/31 07:37:18;;;;;;;5.50;3.07;;;;;;;;;;5072707;28;20991;-73
2023/01/31 07:39:45;;;;;;;7.10;3.90;;;;;;;;;;5073189;28;20834;-72
2023/01/31 07:42:12;;;;;;;12.93;4.30;;;;;;;;;;5073340;28;20455;-73
2023/01/31 07:44:39;;;;;;;8.40;2.90;;;;;;;;;;5073338;28;20470;-73
2023/01/31 07:47:06;;;;;;;13.00;4.37;;;;;;;;;;5072973;28;20455;-72
2023/01/31 07:49:33;;;;;;;6.83;3.47;;;;;;;;;;5073200;28;20478;-72
2023/01/31 07:52:03;;;;;;;6.37;3.53;;;;;;;;;;5073046;28;20439;-72
2023/01/31 07:54:30;;;;;;;11.27;3.50;;;;;;;;;;5073192;28;20447;-73
2023/01/31 07:56:57;;;;;;;12.30;3.60;;;;;;;;;;5072984;28;20487;-72
2023/01/31 07:59:24;;;;;;;9.27;4.53;;;;;;;;;;5076315;28;20475;-72
2023/01/31 08:04:36;;;;;;;9.73;3.10;;;;;;;;;;5076936;28;20454;-72
2023/01/31 08:07:05;;;;;;;10.40;3.73;;;;;;;;;;5077034;28;20451;-73
2023/01/31 08:09:33;;;;;;;5.37;3.83;;;;;;;;;;5077069;28;20902;-72
2023/01/31 08:12:00;;;;;;;11.30;3.60;;;;;;;;;;5076591;28;20455;-72
2023/01/31 08:14:27;;;;;;;8.70;4.43;;;;;;;;;;5076907;28;20951;-72
2023/01/31 08:16:55;;;;;;;8.87;3.60;;;;;;;;;;5076510;28;20497;-72
2023/01/31 08:19:22;;;;;;;11.90;4.17;;;;;;;;;;5076763;28;20507;-73
2023/01/31 08:21:49;;;;;;;3.43;2.93;;;;;;;;;;5076625;28;20980;-72
2023/01/31 08:24:18;;;;;;;8.70;3.80;;;;;;;;;;5076566;28;20470;-72
2023/01/31 08:26:45;;;;;;;3.60;2.97;;;;;;;;;;5076478;28;20455;-72
2023/01/31 08:29:12;;;;;;;5.57;3.20;;;;;;;;;;5076485;28;20487;-72
2023/01/31 08:31:41;;;;;;;6.80;3.20;;;;;;;;;;5076470;28;20467;-72
2023/01/31 08:34:08;;;;;;;6.33;4.60;;;;;;;;;;5076363;28;20542;-72
2023/01/31 08:36:35;;;;;;;9.20;3.60;;;;;;;;;;5076769;28;20909;-72
2023/01/31 08:39:03;;;;;;;19.53;3.30;;;;;;;;;;5076158;28;20496;-73
2023/01/31 08:41:32;;;;;;;9.80;3.70;;;;;;;;;;5076444;28;20432;-72
2023/01/31 08:44:00;;;;;;;5.63;2.90;;;;;;;;;;5076392;28;20451;-72
2023/01/31 08:46:28;;;;;;;4.67;2.80;;;;;;;;;;5076268;28;20458;-72
2023/01/31 08:48:55;;;;;;;6.50;3.93;;;;;;;;;;5075924;28;20474;-72
2023/01/31 08:51:23;;;;;;;5.30;3.37;;;;;;;;;;5076196;28;20455;-73
2023/01/31 08:53:50;;;;;;;9.17;3.20;;;;;;;;;;5076075;28;20458;-72
2023/01/31 08:56:18;;;;;;;7.20;3.10;;;;;;;;;;5076135;28;20444;-72
2023/01/31 08:58:46;;;;;;;7.20;3.27;;;;;;;;;;5075903;28;20504;-72
2023/01/31 09:01:14;;;;;;;12.23;3.13;;;;;;;;;;5075852;28;20447;-74
2023/01/31 09:03:41;;;;;;;6.00;2.73;;;;;;;;;;5075929;28;20460;-72
2023/01/31 09:06:11;;;;;;;6.87;3.60;;;;;;;;;;5076185;28;20918;-72
2023/01/31 09:08:38;;;;;;;7.83;4.07;;;;;;;;;;5075573;28;20476;-71
2023/01/31 09:11:05;;;;;;;7.77;4.13;;;;;;;;;;5075096;28;20953;-71
2023/01/31 09:13:32;;;;;;;5.43;2.90;;;;;;;;;;5075771;28;20952;-72
2023/01/31 09:16:01;;;;;;;11.10;3.90;;;;;;;;;;5075755;28;20452;-72
2023/01/31 09:18:28;;;;;;;8.57;2.73;;;;;;;;;;5075575;28;20483;-72
2023/01/31 09:20:56;;;;;;;12.73;3.43;;;;;;;;;;5075806;28;20456;-73
2023/01/31 09:23:23;;;;;;;5.57;2.40;;;;;;;;;;5075693;28;20463;-71
2023/01/31 09:25:54;;;;;;;6.40;2.93;;;;;;;;;;5075263;28;20917;-72
2023/01/31 09:28:21;;;;;;;18.03;3.80;;;;;;;;;;5075446;28;20451;-71
2023/01/31 09:30:48;;;;;;;6.83;3.47;;;;;;;;;;5075576;28;20459;-72
2023/01/31 09:33:17;;;;;;;6.83;3.00;;;;;;;;;;5075539;28;20849;-72
2023/01/31 09:35:44;;;;;;;8.03;3.10;;;;;;;;;;5075431;28;20951;-71
2023/01/31 09:38:12;;;;;;;10.03;3.57;;;;;;;;;;5075363;28;20487;-71
2023/01/31 09:40:40;;;;;;;4.03;2.80;;;;;;;;;;5074967;28;20472;-71
2023/01/31 09:43:10;;;;;;;2.83;2.23;;;;;;;;;;5075350;28;20448;-72
2023/01/31 09:45:38;;;;;;;5.10;2.97;;;;;;;;;;5074979;28;20451;-71
2023/01/31 09:48:07;;;;;;;9.17;2.40;;;;;;;;;;5075160;28;20459;-72
2023/01/31 09:50:36;;;;;;;11.40;2.80;;;;;;;;;;5075057;28;20476;-72
2023/01/31 09:53:04;;;;;;;8.30;3.03;;;;;;;;;;5075093;28;20448;-72
2023/01/31 09:55:36;;;;;;;8.53;3.30;;;;;;;;;;5074722;28;20463;-72
2023/01/31 09:58:08;;;;;;;9.33;3.03;;;;;;;;;;5074706;28;20472;-72
2023/01/31 10:00:38;;;;;;;9.57;4.20;;;;;;;;;;5075045;28;20676;-73
2023/01/31 10:03:27;;;;;;;5.60;3.20;;;;;;;;;;5074675;28;20437;-72
2023/01/31 10:05:57;;;;;;;7.20;2.20;;;;;;;;;;5049249;28;20452;-72
2023/01/31 10:08:32;;;;;;;6.03;2.50;;;;;;;;;;5074644;28;20456;-72
2023/01/31 10:11:01;;;;;;;5.83;3.00;;;;;;;;;;5074769;28;20904;-71
2023/01/31 10:13:35;;;;;;;6.70;2.90;;;;;;;;;;5074616;28;20451;-71
2023/01/31 10:16:05;;;;;;;4.00;2.53;;;;;;;;;;5074540;28;20432;-72
2023/01/31 10:18:35;;;;;;;6.93;2.83;;;;;;;;;;5074386;28;20494;-72
2023/01/31 10:21:06;;;;;;;4.80;2.43;;;;;;;;;;5074453;28;20893;-72
2023/01/31 10:23:37;;;;;;;4.43;2.73;;;;;;;;;;5074440;28;20844;-72
2023/01/31 10:26:06;;;;;;;7.50;2.67;;;;;;;;;;5074555;28;20424;-72
2023/01/31 10:28:36;;;;;;;7.03;2.80;;;;;;;;;;5074246;28;20881;-72
2023/01/31 10:31:05;;;;;;;6.63;3.20;;;;;;;;;;5074245;28;20459;-72
2023/01/31 10:33:37;;;;;;;10.90;3.00;;;;;;;;;;5074208;28;20452;-72
2023/01/31 10:36:10;;;;;;;7.17;3.23;;;;;;;;;;5074301;28;20801;-72
2023/01/31 10:38:40;;;;;;;4.33;2.97;;;;;;;;;;5073653;28;20467;-72
2023/01/31 10:41:13;;;;;;;5.23;3.10;;;;;;;;;;5073678;28;20820;-71
2023/01/31 10:43:44;;;;;;;7.20;2.93;;;;;;;;;;5073584;28;20542;-72
2023/01/31 10:46:11;;;;;;;6.07;2.83;;;;;;;;;;5073748;28;20940;-72
2023/01/31 10:48:39;;;;;;;5.80;2.80;;;;;;;;;;5073831;28;20476;-72
2023/01/31 10:51:12;;;;;;;8.23;2.80;;;;;;;;;;5073609;28;20462;-72
2023/01/31 10:53:47;;;;;;;6.60;2.57;;;;;;;;;;5073735;28;20436;-72
2023/01/31 10:56:18;;;;;;;8.13;3.03;;;;;;;;;;5073580;28;20467;-72
2023/01/31 10:58:46;;;;;;;4.23;2.83;;;;;;;;;;5073642;28;21102;-72
2023/01/31 11:01:14;;;;;;;6.50;2.47;;;;;;;;;;5073399;28;20869;-72
2023/01/31 11:03:44;;;;;;;3.23;2.37;;;;;;;;;;5073742;28;20779;-72
2023/01/31 11:06:13;;;;;;;5.43;2.43;;;;;;;;;;5073252;28;20829;-73
2023/01/31 11:08:43;;;;;;;7.20;3.17;;;;;;;;;;5073435;28;20834;-72
2023/01/31 11:11:11;;;;;;;5.20;3.10;;;;;;;;;;5073560;28;20451;-73
2023/01/31 11:13:39;;;;;;;7.40;2.23;;;;;;;;;;5073203;28;20492;-72
2023/01/31 11:16:08;;;;;;;10.63;2.70;;;;;;;;;;5073251;28;20455;-72
2023/01/31 11:18:36;;;;;;;5.20;2.30;;;;;;;;;;5073246;28;20480;-72
2023/01/31 11:21:04;;;;;;;7.27;2.43;;;;;;;;;;5073144;28;20463;-72
2023/01/31 11:23:34;;;;;;;15.77;2.83;;;;;;;;;;5073522;28;20897;-73
2023/01/31 11:26:02;;;;;;;6.37;3.00;;;;;;;;;;5073074;28;20507;-72
2023/01/31 11:28:33;;;;;;;5.73;2.60;;;;;;;;;;5073440;28;20849;-72
2023/01/31 11:31:01;;;;;;;13.13;2.43;;;;;;;;;;5073391;28;20432;-72
2023/01/31 11:33:43;;;;;;;3.50;2.27;;;;;;;;;;5072952;28;20927;-72
2023/01/31 11:36:10;;;;;;;9.70;2.53;;;;;;;;;;5073430;28;20799;-72
2023/01/31 11:38:39;;;;;;;6.87;2.83;;;;;;;;;;5072813;28;20496;-72
2023/01/31 11:41:21;;;;;;;6.70;3.03;;;;;;;;;;5073300;28;20955;-72
2023/01/31 11:43:48;;;;;;;6.57;2.67;;;;;;;;;;5072833;28;20451;-72
2023/01/31 11:46:15;;;;;;;8.90;2.53;;;;;;;;;;5073243;28;20475;-72
2023/01/31 11:48:43;;;;;;;16.80;2.53;;;;;;;;;;5073213;28;21009;-72
2023/01/31 11:51:11;;;;;;;12.00;4.00;;;;;;;;;;5073213;28;20534;-72
2023/01/31 11:53:44;;;;;;;5.53;2.80;;;;;;;;;;5073232;28;20451;-72
2023/01/31 11:56:13;;;;;;;8.47;2.60;;;;;;;;;;5072869;28;20428;-72
2023/01/31 11:58:41;;;;;;;5.43;2.50;;;;;;;;;;5073186;28;20499;-72
2023/01/31 12:01:13;;;;;;;4.73;2.87;;;;;;;;;;5073088;28;20876;-72
2023/01/31 12:03:40;;;;;;;4.70;2.93;;;;;;;;;;5073596;28;20424;-72
2023/01/31 12:06:09;;;;;;;5.80;2.93;;;;;;;;;;5073167;28;20454;-72
2023/01/31 12:08:37;;;;;;;5.13;2.33;;;;;;;;;;5072698;28;20439;-72
2023/01/31 12:11:06;;;;;;;14.00;3.20;;;;;;;;;;5073278;28;20447;-72
2023/01/31 12:13:45;;;;;;;8.00;1.70;;;;;;;;;;5073033;28;20888;-72
2023/01/31 12:16:13;;;;;;;8.93;2.83;;;;;;;;;;5072747;28;20435;-72
2023/01/31 12:18:49;;;;;;;5.47;2.60;;;;;;;;;;5072518;28;20495;-72
2023/01/31 12:21:17;;;;;;;8.67;2.23;;;;;;;;;;5072972;28;20440;-72
2023/01/31 12:23:49;;;;;;;4.20;2.10;;;;;;;;;;5072524;28;20459;-72
2023/01/31 12:26:24;;;;;;;8.40;2.10;;;;;;;;;;5072861;28;20442;-72
2023/01/31 12:28:59;;;;;;;10.60;2.77;;;;;;;;;;5072886;28;20829;-72
2023/01/31 12:31:35;;;;;;;3.93;2.80;;;;;;;;;;5072578;28;20431;-72
2023/01/31 12:34:09;;;;;;;14.13;2.70;;;;;;;;;;5073069;28;20438;-72
2023/01/31 12:36:47;;;;;;;8.00;2.87;;;;;;;;;;5072856;28;20432;-72
2023/01/31 12:39:26;;;;;;;8.23;2.30;;;;;;;;;;5072371;28;20487;-72
2023/01/31 12:42:00;;;;;;;8.83;2.87;;;;;;;;;;5072681;28;20817;-72
2023/01/31 12:44:38;;;;;;;4.80;2.60;;;;;;;;;;5072480;28;20664;-72
2023/01/31 12:47:18;;;;;;;5.93;3.03;;;;;;;;;;5076100;28;20443;-72
2023/01/31 12:50:03;;;;;;;6.80;2.50;;;;;;;;;;5075630;28;20471;-74
2023/01/31 12:52:35;;;;;;;10.80;3.07;;;;;;;;;;5065681;28;20455;-72
2023/01/31 12:55:09;;;;;;;7.03;2.90;;;;;;;;;;5075785;28;20440;-72
2023/01/31 12:57:41;;;;;;;4.33;2.90;;;;;;;;;;5075791;28;20432;-72
2023/01/31 13:00:16;;;;;;;9.93;3.70;;;;;;;;;;5075558;28;20491;-72
2023/01/31 13:02:50;;;;;;;5.20;2.37;;;;;;;;;;5075839;28;20451;-72
2023/01/31 13:05:25;;;;;;;6.70;2.90;;;;;;;;;;5076084;28;20439;-72
2023/01/31 13:07:54;;;;;;;6.60;2.50;;;;;;;;;;5075916;28;20432;-72
2023/01/31 13:10:27;;;;;;;4.70;2.40;;;;;;;;;;5075858;28;20498;-72
2023/01/31 13:12:56;;;;;;;5.10;2.47;;;;;;;;;;5076004;28;20519;-72
2023/01/31 13:15:28;;;;;;;8.43;3.07;;;;;;;;;;5075848;28;20451;-72
2023/01/31 13:17:56;;;;;;;4.63;2.30;;;;;;;;;;5075854;28;20471;-72
2023/01/31 13:20:27;;;;;;;11.43;2.67;;;;;;;;;;5075339;28;20498;-72
2023/01/31 13:22:55;;;;;;;4.73;2.57;;;;;;;;;;5075513;28;20454;-72
2023/01/31 13:25:24;;;;;;;6.60;3.13;;;;;;;;;;5075476;28;20475;-72
2023/01/31 13:27:56;;;;;;;6.13;2.80;;;;;;;;;;5073883;28;20455;-73
2023/01/31 13:30:33;;;;;;;5.27;2.53;;;;;;;;;;5074459;28;20472;-72
2023/01/31 13:33:01;;;;;;;12.47;2.73;;;;;;;;;;5074357;28;20436;-72
2023/01/31 13:35:33;;;;;;;6.60;3.30;;;;;;;;;;5074008;28;20451;-72
2023/01/31 13:38:01;;;;;;;5.23;2.57;;;;;;;;;;5074256;28;20439;-72
2023/01/31 13:40:30;;;;;;;4.40;2.60;;;;;;;;;;5073819;28;20502;-72
2023/01/31 13:42:59;;;;;;;4.90;2.50;;;;;;;;;;5074073;28;20459;-72
2023/01/31 13:45:30;;;;;;;8.67;3.00;;;;;;;;;;5074112;28;20456;-73
2023/01/31 13:48:00;;;;;;;4.50;3.70;;;;;;;;;;5074029;28;20432;-72
2023/01/31 13:50:33;;;;;;;5.90;3.17;;;;;;;;;;5073739;28;20475;-72
2023/01/31 13:53:01;;;;;;;9.03;3.57;;;;;;;;;;5073906;28;20803;-72
2023/01/31 13:55:31;;;;;;;6.03;2.83;;;;;;;;;;5073756;28;20508;-72
2023/01/31 13:57:59;;;;;;;4.63;3.27;;;;;;;;;;5073559;28;20467;-72
2023/01/31 14:00:36;;;;;;;4.90;2.30;;;;;;;;;;5073771;28;20488;-73
2023/01/31 14:03:04;;;;;;;4.33;3.07;;;;;;;;;;5073583;28;20443;-72
2023/01/31 14:05:50;;;;;;;4.80;2.93;;;;;;;;;;5073825;28;20873;-72
2023/01/31 14:08:37;;;;;;;4.90;3.23;;;;;;;;;;5074103;28;21053;-73
2023/01/31 14:11:24;;;;;;;4.90;3.10;;;;;;;;;;5073567;28;20966;-72
2023/01/31 14:14:10;;;;;;;5.67;2.73;;;;;;;;;;5073138;28;20456;-72
2023/01/31 14:16:41;;;;;;;6.43;2.83;;;;;;;;;;5073440;28;20455;-72
2023/01/31 14:19:38;;;;;;;6.17;2.87;;;;;;;;;;5072839;28;20491;-73
2023/01/31 14:22:14;;;;;;;5.20;3.00;;;;;;;;;;5011090;28;20450;-72
2023/01/31 14:25:05;;;;;;;6.10;3.60;;;;;;;;;;5062277;28;20455;-72
2023/01/31 14:27:40;;;;;;;5.33;2.87;;;;;;;;;;5073173;28;20452;-73
2023/01/31 14:30:24;;;;;;;6.00;2.93;;;;;;;;;;5073247;28;20467;-73
2023/01/31 14:33:03;;;;;;;6.33;3.93;;;;;;;;;;5073233;28;20463;-72
2023/01/31 14:35:36;;;;;;;7.73;3.80;;;;;;;;;;5073153;28;20527;-73
2023/01/31 14:38:09;;;;;;;9.63;3.97;;;;;;;;;;5073153;28;20455;-73
2023/01/31 14:40:40;;;;;;;6.80;3.50;;;;;;;;;;5073082;28;21007;-72
2023/01/31 14:43:15;;;;;;;9.03;5.27;;;;;;;;;;5072637;28;20432;-73
2023/01/31 14:45:56;;;;;;;7.33;3.80;;;;;;;;;;5072872;28;20443;-73
2023/01/31 14:48:37;;;;;;;6.37;3.57;;;;;;;;;;5072878;28;20811;-73
2023/01/31 14:51:19;;;;;;;10.33;5.00;;;;;;;;;;5072944;28;20440;-72
2023/01/31 14:54:00;;;;;;;5.60;3.07;;;;;;;;;;5072959;28;20431;-73
2023/01/31 14:56:38;;;;;;;7.53;2.47;;;;;;;;;;5072627;28;20439;-72
2023/01/31 14:59:05;;;;;;;5.43;3.70;;;;;;;;;;5072657;28;20491;-72
2023/01/31 15:01:34;;;;;;;13.17;3.53;;;;;;;;;;5072785;28;20793;-72
2023/01/31 15:04:03;;;;;;;6.77;3.23;;;;;;;;;;5072198;28;20456;-72